Terminal Aerodrome Forecast
Issued by NWS Jackson, MS

Home | Current Version | Previous Version | Text Only | Print | Product List | Glossary On
Versions: 1 2 3 4 5 6 7 8 9 10 11 12 13 14 15 16
162
FTUS44 KJAN 260520
TAFGLH
TAF
KGLH 260520Z 2606/2706 16008KT P6SM BKN050 OVC080
     FM260800 17007KT 6SM BR OVC015
     FM261100 18006KT 4SM BR OVC015
     FM261400 19009KT P6SM BKN025
     FM261800 18009KT P6SM VCTS BKN050CB
     FM270300 17008KT P6SM BKN100=

USA.gov is the U.S. government's official web portal to all federal, state and local government web resources and services.